sensor_id;sensor_type;location;lat;lon;timestamp;P1;durP1;ratioP1;P2;durP2;ratioP2
22565;SDS011;11449;51.330;19.378;2024-01-15T00:00:08;58.10;;;12.90;;
22565;SDS011;11449;51.330;19.378;2024-01-15T00:05:36;60.90;;;13.30;;
22565;SDS011;11449;51.330;19.378;2024-01-15T00:10:43;51.00;;;12.60;;
22565;SDS011;11449;51.330;19.378;2024-01-15T00:15:51;60.30;;;13.40;;
22565;SDS011;11449;51.330;19.378;2024-01-15T00:20:59;41.70;;;10.40;;
22565;SDS011;11449;51.330;19.378;2024-01-15T00:26:06;56.70;;;11.50;;
22565;SDS011;11449;51.330;19.378;2024-01-15T00:31:16;64.80;;;13.10;;
22565;SDS011;11449;51.330;19.378;2024-01-15T00:36:23;83.70;;;14.70;;
22565;SDS011;11449;51.330;19.378;2024-01-15T00:41:31;70.10;;;13.40;;
22565;SDS011;11449;51.330;19.378;2024-01-15T00:46:45;59.90;;;12.60;;
22565;SDS011;11449;51.330;19.378;2024-01-15T00:51:53;64.80;;;13.70;;
22565;SDS011;11449;51.330;19.378;2024-01-15T00:57:01;50.60;;;10.90;;
22565;SDS011;11449;51.330;19.378;2024-01-15T01:02:08;52.60;;;11.20;;
22565;SDS011;11449;51.330;19.378;2024-01-15T01:07:16;69.70;;;12.80;;
22565;SDS011;11449;51.330;19.378;2024-01-15T01:12:24;68.20;;;12.60;;
22565;SDS011;11449;51.330;19.378;2024-01-15T01:17:31;63.70;;;12.20;;
22565;SDS011;11449;51.330;19.378;2024-01-15T01:22:39;60.20;;;12.30;;
22565;SDS011;11449;51.330;19.378;2024-01-15T01:27:46;56.10;;;11.40;;
22565;SDS011;11449;51.330;19.378;2024-01-15T01:32:54;64.60;;;12.80;;
22565;SDS011;11449;51.330;19.378;2024-01-15T01:38:02;61.40;;;12.30;;
22565;SDS011;11449;51.330;19.378;2024-01-15T01:43:09;89.00;;;14.70;;
22565;SDS011;11449;51.330;19.378;2024-01-15T01:48:17;82.20;;;13.70;;
22565;SDS011;11449;51.330;19.378;2024-01-15T01:53:28;83.60;;;14.10;;
22565;SDS011;11449;51.330;19.378;2024-01-15T01:58:37;69.30;;;13.30;;
22565;SDS011;11449;51.330;19.378;2024-01-15T02:03:44;63.20;;;14.60;;
22565;SDS011;11449;51.330;19.378;2024-01-15T02:08:52;58.30;;;12.80;;
22565;SDS011;11449;51.330;19.378;2024-01-15T02:14:01;64.20;;;13.50;;
22565;SDS011;11449;51.330;19.378;2024-01-15T02:19:14;62.10;;;12.40;;
22565;SDS011;11449;51.330;19.378;2024-01-15T02:24:22;83.30;;;14.50;;
22565;SDS011;11449;51.330;19.378;2024-01-15T02:29:30;60.50;;;11.90;;
22565;SDS011;11449;51.330;19.378;2024-01-15T02:34:37;58.30;;;12.70;;
22565;SDS011;11449;51.330;19.378;2024-01-15T02:39:45;58.90;;;12.30;;
22565;SDS011;11449;51.330;19.378;2024-01-15T02:44:52;50.70;;;12.10;;
22565;SDS011;11449;51.330;19.378;2024-01-15T02:50:00;56.40;;;11.70;;
22565;SDS011;11449;51.330;19.378;2024-01-15T02:55:08;55.80;;;12.40;;
22565;SDS011;11449;51.330;19.378;2024-01-15T03:00:15;63.70;;;12.90;;
22565;SDS011;11449;51.330;19.378;2024-01-15T03:05:23;79.40;;;13.70;;
22565;SDS011;11449;51.330;19.378;2024-01-15T03:10:31;128.20;;;27.70;;
22565;SDS011;11449;51.330;19.378;2024-01-15T03:15:39;57.70;;;12.50;;
22565;SDS011;11449;51.330;19.378;2024-01-15T03:20:46;62.20;;;13.50;;
22565;SDS011;11449;51.330;19.378;2024-01-15T03:25:54;45.60;;;10.90;;
22565;SDS011;11449;51.330;19.378;2024-01-15T03:31:02;108.40;;;24.70;;
22565;SDS011;11449;51.330;19.378;2024-01-15T03:36:09;72.60;;;18.70;;
22565;SDS011;11449;51.330;19.378;2024-01-15T03:41:18;124.30;;;19.80;;
22565;SDS011;11449;51.330;19.378;2024-01-15T03:46:26;89.50;;;16.00;;
22565;SDS011;11449;51.330;19.378;2024-01-15T03:51:34;70.10;;;12.70;;
22565;SDS011;11449;51.330;19.378;2024-01-15T03:56:41;69.80;;;12.90;;
22565;SDS011;11449;51.330;19.378;2024-01-15T04:01:49;52.40;;;10.80;;
22565;SDS011;11449;51.330;19.378;2024-01-15T04:06:58;50.40;;;10.60;;
22565;SDS011;11449;51.330;19.378;2024-01-15T04:12:05;55.50;;;11.60;;
22565;SDS011;11449;51.330;19.378;2024-01-15T04:17:13;63.80;;;12.10;;
22565;SDS011;11449;51.330;19.378;2024-01-15T04:22:21;82.00;;;16.80;;
22565;SDS011;11449;51.330;19.378;2024-01-15T04:27:29;69.40;;;13.00;;
22565;SDS011;11449;51.330;19.378;2024-01-15T04:32:37;53.30;;;11.20;;
22565;SDS011;11449;51.330;19.378;2024-01-15T04:37:44;60.30;;;12.10;;
22565;SDS011;11449;51.330;19.378;2024-01-15T04:42:52;71.00;;;16.40;;
22565;SDS011;11449;51.330;19.378;2024-01-15T04:48:00;51.10;;;10.70;;
22565;SDS011;11449;51.330;19.378;2024-01-15T04:53:07;76.90;;;12.40;;
22565;SDS011;11449;51.330;19.378;2024-01-15T04:58:15;61.50;;;12.60;;
22565;SDS011;11449;51.330;19.378;2024-01-15T05:03:22;101.90;;;17.50;;
22565;SDS011;11449;51.330;19.378;2024-01-15T05:08:30;78.50;;;13.30;;
22565;SDS011;11449;51.330;19.378;2024-01-15T05:13:38;69.50;;;12.40;;
22565;SDS011;11449;51.330;19.378;2024-01-15T05:18:45;54.20;;;10.40;;
22565;SDS011;11449;51.330;19.378;2024-01-15T05:23:53;85.40;;;13.50;;
22565;SDS011;11449;51.330;19.378;2024-01-15T05:29:01;46.70;;;10.20;;
22565;SDS011;11449;51.330;19.378;2024-01-15T05:34:08;52.10;;;10.30;;
22565;SDS011;11449;51.330;19.378;2024-01-15T05:39:16;54.40;;;10.90;;
22565;SDS011;11449;51.330;19.378;2024-01-15T05:44:23;51.80;;;10.80;;
22565;SDS011;11449;51.330;19.378;2024-01-15T05:49:31;66.80;;;12.60;;
22565;SDS011;11449;51.330;19.378;2024-01-15T05:54:39;84.30;;;14.30;;
22565;SDS011;11449;51.330;19.378;2024-01-15T05:59:46;72.50;;;13.20;;
22565;SDS011;11449;51.330;19.378;2024-01-15T06:04:54;60.70;;;12.00;;
22565;SDS011;11449;51.330;19.378;2024-01-15T06:10:02;58.10;;;12.20;;
22565;SDS011;11449;51.330;19.378;2024-01-15T06:15:10;52.00;;;11.10;;
22565;SDS011;11449;51.330;19.378;2024-01-15T06:20:17;59.20;;;11.20;;
22565;SDS011;11449;51.330;19.378;2024-01-15T06:25:25;49.50;;;10.20;;
22565;SDS011;11449;51.330;19.378;2024-01-15T06:30:33;69.90;;;12.10;;
22565;SDS011;11449;51.330;19.378;2024-01-15T06:35:40;80.20;;;13.00;;
22565;SDS011;11449;51.330;19.378;2024-01-15T06:40:48;74.20;;;16.00;;
22565;SDS011;11449;51.330;19.378;2024-01-15T06:45:56;63.60;;;16.00;;
22565;SDS011;11449;51.330;19.378;2024-01-15T06:51:04;54.20;;;12.80;;
22565;SDS011;11449;51.330;19.378;2024-01-15T06:56:12;130.10;;;17.20;;
22565;SDS011;11449;51.330;19.378;2024-01-15T07:01:19;56.10;;;12.20;;
22565;SDS011;11449;51.330;19.378;2024-01-15T07:06:27;61.40;;;12.90;;
22565;SDS011;11449;51.330;19.378;2024-01-15T07:11:35;80.60;;;13.90;;
22565;SDS011;11449;51.330;19.378;2024-01-15T07:16:42;86.50;;;14.30;;
22565;SDS011;11449;51.330;19.378;2024-01-15T07:21:50;67.80;;;13.80;;
22565;SDS011;11449;51.330;19.378;2024-01-15T07:26:57;56.90;;;12.50;;
22565;SDS011;11449;51.330;19.378;2024-01-15T07:32:05;64.80;;;15.70;;
22565;SDS011;11449;51.330;19.378;2024-01-15T07:37:15;58.70;;;14.30;;
22565;SDS011;11449;51.330;19.378;2024-01-15T07:42:22;60.00;;;13.00;;
22565;SDS011;11449;51.330;19.378;2024-01-15T07:47:30;67.30;;;15.20;;
22565;SDS011;11449;51.330;19.378;2024-01-15T07:52:39;103.50;;;22.00;;
22565;SDS011;11449;51.330;19.378;2024-01-15T07:57:47;73.60;;;14.20;;
22565;SDS011;11449;51.330;19.378;2024-01-15T08:02:55;74.20;;;16.40;;
22565;SDS011;11449;51.330;19.378;2024-01-15T08:08:03;60.40;;;13.50;;
22565;SDS011;11449;51.330;19.378;2024-01-15T08:13:10;86.60;;;14.40;;
22565;SDS011;11449;51.330;19.378;2024-01-15T08:18:18;65.00;;;13.70;;
22565;SDS011;11449;51.330;19.378;2024-01-15T08:23:26;51.10;;;12.10;;
22565;SDS011;11449;51.330;19.378;2024-01-15T08:28:35;81.90;;;15.20;;
22565;SDS011;11449;51.330;19.378;2024-01-15T08:33:43;94.50;;;17.40;;
22565;SDS011;11449;51.330;19.378;2024-01-15T08:38:51;73.40;;;16.50;;
22565;SDS011;11449;51.330;19.378;2024-01-15T08:43:58;55.30;;;12.10;;
22565;SDS011;11449;51.330;19.378;2024-01-15T08:49:06;49.90;;;10.80;;
22565;SDS011;11449;51.330;19.378;2024-01-15T08:54:14;57.80;;;12.30;;
22565;SDS011;11449;51.330;19.378;2024-01-15T08:59:21;51.00;;;10.50;;
22565;SDS011;11449;51.330;19.378;2024-01-15T09:04:33;73.00;;;12.40;;
22565;SDS011;11449;51.330;19.378;2024-01-15T09:09:41;78.80;;;13.20;;
22565;SDS011;11449;51.330;19.378;2024-01-15T09:14:49;63.30;;;12.10;;
22565;SDS011;11449;51.330;19.378;2024-01-15T09:19:58;48.70;;;10.60;;
22565;SDS011;11449;51.330;19.378;2024-01-15T09:25:05;49.30;;;9.90;;
22565;SDS011;11449;51.330;19.378;2024-01-15T09:30:13;58.50;;;12.10;;
22565;SDS011;11449;51.330;19.378;2024-01-15T09:35:21;47.50;;;10.10;;
22565;SDS011;11449;51.330;19.378;2024-01-15T09:40:30;50.70;;;9.70;;
22565;SDS011;11449;51.330;19.378;2024-01-15T09:45:38;73.60;;;12.00;;
22565;SDS011;11449;51.330;19.378;2024-01-15T09:50:46;66.80;;;10.60;;
22565;SDS011;11449;51.330;19.378;2024-01-15T09:55:55;55.40;;;10.70;;
22565;SDS011;11449;51.330;19.378;2024-01-15T10:01:02;46.40;;;9.60;;
22565;SDS011;11449;51.330;19.378;2024-01-15T10:06:10;55.70;;;11.30;;
22565;SDS011;11449;51.330;19.378;2024-01-15T10:11:18;51.60;;;11.40;;
22565;SDS011;11449;51.330;19.378;2024-01-15T10:16:26;50.20;;;10.20;;
22565;SDS011;11449;51.330;19.378;2024-01-15T10:21:34;76.60;;;12.80;;
22565;SDS011;11449;51.330;19.378;2024-01-15T10:31:52;70.90;;;17.60;;
22565;SDS011;11449;51.330;19.378;2024-01-15T10:37:00;54.00;;;10.60;;
22565;SDS011;11449;51.330;19.378;2024-01-15T10:42:10;47.70;;;9.50;;
22565;SDS011;11449;51.330;19.378;2024-01-15T10:47:18;56.00;;;10.40;;
22565;SDS011;11449;51.330;19.378;2024-01-15T10:52:27;57.20;;;10.90;;
22565;SDS011;11449;51.330;19.378;2024-01-15T10:57:30;71.70;;;14.40;;
22565;SDS011;11449;51.330;19.378;2024-01-15T11:02:38;79.70;;;13.00;;
22565;SDS011;11449;51.330;19.378;2024-01-15T11:07:45;80.50;;;13.40;;
22565;SDS011;11449;51.330;19.378;2024-01-15T11:12:53;71.40;;;15.10;;
22565;SDS011;11449;51.330;19.378;2024-01-15T11:18:02;65.50;;;12.80;;
22565;SDS011;11449;51.330;19.378;2024-01-15T11:33:49;72.20;;;13.30;;
22565;SDS011;11449;51.330;19.378;2024-01-15T11:38:57;62.40;;;13.80;;
22565;SDS011;11449;51.330;19.378;2024-01-15T11:44:05;52.80;;;12.10;;
22565;SDS011;11449;51.330;19.378;2024-01-15T11:49:13;58.30;;;12.70;;
22565;SDS011;11449;51.330;19.378;2024-01-15T11:54:28;68.10;;;13.10;;
22565;SDS011;11449;51.330;19.378;2024-01-15T11:59:39;98.30;;;15.70;;
22565;SDS011;11449;51.330;19.378;2024-01-15T12:04:46;70.40;;;15.30;;
22565;SDS011;11449;51.330;19.378;2024-01-15T12:09:54;58.70;;;12.50;;
22565;SDS011;11449;51.330;19.378;2024-01-15T12:15:02;60.50;;;13.60;;
22565;SDS011;11449;51.330;19.378;2024-01-15T12:20:10;115.90;;;32.60;;
22565;SDS011;11449;51.330;19.378;2024-01-15T12:25:17;71.20;;;15.10;;
22565;SDS011;11449;51.330;19.378;2024-01-15T12:30:26;85.10;;;20.80;;
22565;SDS011;11449;51.330;19.378;2024-01-15T12:35:34;114.30;;;26.30;;
22565;SDS011;11449;51.330;19.378;2024-01-15T12:40:43;93.50;;;15.40;;
22565;SDS011;11449;51.330;19.378;2024-01-15T12:45:53;62.00;;;13.00;;
22565;SDS011;11449;51.330;19.378;2024-01-15T12:51:01;55.80;;;11.50;;
22565;SDS011;11449;51.330;19.378;2024-01-15T12:56:13;149.60;;;19.00;;
22565;SDS011;11449;51.330;19.378;2024-01-15T13:01:21;60.40;;;13.70;;
22565;SDS011;11449;51.330;19.378;2024-01-15T13:06:29;65.70;;;12.20;;
22565;SDS011;11449;51.330;19.378;2024-01-15T13:11:36;84.90;;;14.90;;
22565;SDS011;11449;51.330;19.378;2024-01-15T13:16:44;85.60;;;13.70;;
22565;SDS011;11449;51.330;19.378;2024-01-15T13:21:52;57.70;;;11.00;;
22565;SDS011;11449;51.330;19.378;2024-01-15T13:27:00;59.40;;;11.20;;
22565;SDS011;11449;51.330;19.378;2024-01-15T13:32:08;55.00;;;10.80;;
22565;SDS011;11449;51.330;19.378;2024-01-15T13:37:18;53.00;;;9.90;;
22565;SDS011;11449;51.330;19.378;2024-01-15T13:42:26;53.30;;;9.70;;
22565;SDS011;11449;51.330;19.378;2024-01-15T13:47:34;77.90;;;12.90;;
22565;SDS011;11449;51.330;19.378;2024-01-15T13:52:42;83.50;;;13.40;;
22565;SDS011;11449;51.330;19.378;2024-01-15T13:57:50;54.60;;;11.50;;
22565;SDS011;11449;51.330;19.378;2024-01-15T14:02:58;110.20;;;16.00;;
22565;SDS011;11449;51.330;19.378;2024-01-15T14:08:05;66.50;;;13.90;;
22565;SDS011;11449;51.330;19.378;2024-01-15T14:13:13;100.60;;;15.20;;
22565;SDS011;11449;51.330;19.378;2024-01-15T14:18:21;59.20;;;11.90;;
22565;SDS011;11449;51.330;19.378;2024-01-15T14:23:29;53.00;;;11.20;;
22565;SDS011;11449;51.330;19.378;2024-01-15T14:28:36;135.30;;;17.70;;
22565;SDS011;11449;51.330;19.378;2024-01-15T14:33:44;109.60;;;15.40;;
22565;SDS011;11449;51.330;19.378;2024-01-15T14:38:51;59.30;;;11.30;;
22565;SDS011;11449;51.330;19.378;2024-01-15T14:43:59;57.80;;;11.80;;
22565;SDS011;11449;51.330;19.378;2024-01-15T14:49:07;58.90;;;12.00;;
22565;SDS011;11449;51.330;19.378;2024-01-15T14:54:14;52.40;;;9.90;;
22565;SDS011;11449;51.330;19.378;2024-01-15T14:59:22;60.40;;;11.10;;
22565;SDS011;11449;51.330;19.378;2024-01-15T15:04:30;61.20;;;10.80;;
22565;SDS011;11449;51.330;19.378;2024-01-15T15:09:38;83.00;;;13.20;;
22565;SDS011;11449;51.330;19.378;2024-01-15T15:14:46;86.40;;;13.20;;
22565;SDS011;11449;51.330;19.378;2024-01-15T15:19:53;56.20;;;12.40;;
22565;SDS011;11449;51.330;19.378;2024-01-15T15:25:01;57.60;;;11.30;;
22565;SDS011;11449;51.330;19.378;2024-01-15T15:30:09;53.10;;;10.30;;
22565;SDS011;11449;51.330;19.378;2024-01-15T15:35:18;49.90;;;9.80;;
22565;SDS011;11449;51.330;19.378;2024-01-15T15:40:26;395.70;;;362.60;;
22565;SDS011;11449;51.330;19.378;2024-01-15T15:45:33;1030.00;;;947.40;;
22565;SDS011;11449;51.330;19.378;2024-01-15T15:50:41;963.50;;;884.20;;
22565;SDS011;11449;51.330;19.378;2024-01-15T15:55:49;56.50;;;10.30;;
22565;SDS011;11449;51.330;19.378;2024-01-15T16:00:56;54.50;;;11.60;;
22565;SDS011;11449;51.330;19.378;2024-01-15T16:06:04;52.70;;;11.60;;
22565;SDS011;11449;51.330;19.378;2024-01-15T16:11:11;53.10;;;12.80;;
22565;SDS011;11449;51.330;19.378;2024-01-15T16:16:19;62.30;;;14.20;;
22565;SDS011;11449;51.330;19.378;2024-01-15T16:21:27;59.10;;;13.40;;
22565;SDS011;11449;51.330;19.378;2024-01-15T16:26:34;77.80;;;12.90;;
22565;SDS011;11449;51.330;19.378;2024-01-15T16:31:42;74.10;;;14.30;;
22565;SDS011;11449;51.330;19.378;2024-01-15T16:36:50;72.30;;;16.10;;
22565;SDS011;11449;51.330;19.378;2024-01-15T16:41:58;68.30;;;14.90;;
22565;SDS011;11449;51.330;19.378;2024-01-15T16:47:06;50.70;;;10.40;;
22565;SDS011;11449;51.330;19.378;2024-01-15T16:52:14;50.10;;;10.80;;
22565;SDS011;11449;51.330;19.378;2024-01-15T16:57:21;56.30;;;10.70;;
22565;SDS011;11449;51.330;19.378;2024-01-15T17:02:30;52.10;;;10.00;;
22565;SDS011;11449;51.330;19.378;2024-01-15T17:07:37;78.20;;;14.30;;
22565;SDS011;11449;51.330;19.378;2024-01-15T17:12:45;78.90;;;12.50;;
22565;SDS011;11449;51.330;19.378;2024-01-15T17:17:54;48.30;;;10.50;;
22565;SDS011;11449;51.330;19.378;2024-01-15T17:23:02;50.50;;;9.70;;
22565;SDS011;11449;51.330;19.378;2024-01-15T17:28:10;49.30;;;10.10;;
22565;SDS011;11449;51.330;19.378;2024-01-15T17:33:18;83.80;;;13.00;;
22565;SDS011;11449;51.330;19.378;2024-01-15T17:38:27;55.80;;;11.00;;
22565;SDS011;11449;51.330;19.378;2024-01-15T17:43:35;75.30;;;14.90;;
22565;SDS011;11449;51.330;19.378;2024-01-15T17:48:44;87.60;;;16.00;;
22565;SDS011;11449;51.330;19.378;2024-01-15T17:53:51;55.70;;;11.00;;
22565;SDS011;11449;51.330;19.378;2024-01-15T17:58:59;58.80;;;10.70;;
22565;SDS011;11449;51.330;19.378;2024-01-15T18:04:08;61.50;;;12.60;;
22565;SDS011;11449;51.330;19.378;2024-01-15T18:09:16;67.70;;;14.70;;
22565;SDS011;11449;51.330;19.378;2024-01-15T18:14:26;53.40;;;11.20;;
22565;SDS011;11449;51.330;19.378;2024-01-15T18:19:35;81.70;;;15.70;;
22565;SDS011;11449;51.330;19.378;2024-01-15T18:24:42;77.20;;;15.50;;
22565;SDS011;11449;51.330;19.378;2024-01-15T18:29:50;58.40;;;12.00;;
22565;SDS011;11449;51.330;19.378;2024-01-15T18:34:58;57.20;;;11.50;;
22565;SDS011;11449;51.330;19.378;2024-01-15T18:40:05;57.60;;;13.10;;
22565;SDS011;11449;51.330;19.378;2024-01-15T18:45:13;69.80;;;13.20;;
22565;SDS011;11449;51.330;19.378;2024-01-15T18:50:21;57.40;;;10.50;;
22565;SDS011;11449;51.330;19.378;2024-01-15T18:55:29;57.00;;;10.30;;
22565;SDS011;11449;51.330;19.378;2024-01-15T19:00:36;65.40;;;11.80;;
22565;SDS011;11449;51.330;19.378;2024-01-15T19:05:44;175.10;;;20.50;;
22565;SDS011;11449;51.330;19.378;2024-01-15T19:10:52;58.90;;;10.70;;
22565;SDS011;11449;51.330;19.378;2024-01-15T19:16:02;49.80;;;10.00;;
22565;SDS011;11449;51.330;19.378;2024-01-15T19:21:11;48.40;;;11.10;;
22565;SDS011;11449;51.330;19.378;2024-01-15T19:26:20;57.00;;;10.90;;
22565;SDS011;11449;51.330;19.378;2024-01-15T19:31:28;52.00;;;9.20;;
22565;SDS011;11449;51.330;19.378;2024-01-15T19:36:37;72.60;;;11.70;;
22565;SDS011;11449;51.330;19.378;2024-01-15T19:41:44;83.50;;;13.30;;
22565;SDS011;11449;51.330;19.378;2024-01-15T19:46:52;58.30;;;10.30;;
22565;SDS011;11449;51.330;19.378;2024-01-15T19:52:00;52.40;;;10.50;;
22565;SDS011;11449;51.330;19.378;2024-01-15T19:57:07;55.50;;;10.60;;
22565;SDS011;11449;51.330;19.378;2024-01-15T20:02:15;59.40;;;11.30;;
22565;SDS011;11449;51.330;19.378;2024-01-15T20:07:23;55.70;;;10.40;;
22565;SDS011;11449;51.330;19.378;2024-01-15T20:12:31;57.20;;;10.60;;
22565;SDS011;11449;51.330;19.378;2024-01-15T20:17:39;71.30;;;11.50;;
22565;SDS011;11449;51.330;19.378;2024-01-15T20:22:46;74.10;;;12.10;;
22565;SDS011;11449;51.330;19.378;2024-01-15T20:27:54;65.20;;;11.90;;
22565;SDS011;11449;51.330;19.378;2024-01-15T20:33:01;52.60;;;9.80;;
22565;SDS011;11449;51.330;19.378;2024-01-15T20:38:09;81.90;;;12.30;;
22565;SDS011;11449;51.330;19.378;2024-01-15T20:43:17;98.70;;;14.80;;
22565;SDS011;11449;51.330;19.378;2024-01-15T20:48:25;50.80;;;9.20;;
22565;SDS011;11449;51.330;19.378;2024-01-15T20:53:34;85.60;;;12.80;;
22565;SDS011;11449;51.330;19.378;2024-01-15T20:58:42;92.30;;;12.10;;
22565;SDS011;11449;51.330;19.378;2024-01-15T21:03:50;89.30;;;12.90;;
22565;SDS011;11449;51.330;19.378;2024-01-15T21:08:57;77.20;;;11.60;;
22565;SDS011;11449;51.330;19.378;2024-01-15T21:14:05;67.90;;;10.90;;
22565;SDS011;11449;51.330;19.378;2024-01-15T21:19:13;78.50;;;13.00;;
22565;SDS011;11449;51.330;19.378;2024-01-15T21:24:20;93.60;;;12.60;;
22565;SDS011;11449;51.330;19.378;2024-01-15T21:29:33;65.20;;;10.60;;
22565;SDS011;11449;51.330;19.378;2024-01-15T21:34:41;72.90;;;11.80;;
22565;SDS011;11449;51.330;19.378;2024-01-15T21:39:48;70.30;;;10.90;;
22565;SDS011;11449;51.330;19.378;2024-01-15T21:44:56;65.30;;;9.30;;
22565;SDS011;11449;51.330;19.378;2024-01-15T21:50:07;66.10;;;9.80;;
22565;SDS011;11449;51.330;19.378;2024-01-15T21:55:18;103.30;;;12.30;;
22565;SDS011;11449;51.330;19.378;2024-01-15T22:00:26;81.30;;;10.50;;
22565;SDS011;11449;51.330;19.378;2024-01-15T22:05:34;100.20;;;12.50;;
22565;SDS011;11449;51.330;19.378;2024-01-15T22:10:42;87.60;;;10.50;;
22565;SDS011;11449;51.330;19.378;2024-01-15T22:15:49;74.40;;;9.80;;
22565;SDS011;11449;51.330;19.378;2024-01-15T22:20:59;71.70;;;9.20;;
22565;SDS011;11449;51.330;19.378;2024-01-15T22:26:07;70.00;;;9.00;;
22565;SDS011;11449;51.330;19.378;2024-01-15T22:31:15;143.30;;;68.40;;
22565;SDS011;11449;51.330;19.378;2024-01-15T22:36:23;543.30;;;468.60;;
22565;SDS011;11449;51.330;19.378;2024-01-15T22:41:30;545.30;;;479.80;;
22565;SDS011;11449;51.330;19.378;2024-01-15T22:46:38;50.40;;;7.00;;
22565;SDS011;11449;51.330;19.378;2024-01-15T22:51:46;50.10;;;6.60;;
22565;SDS011;11449;51.330;19.378;2024-01-15T22:56:53;55.40;;;7.20;;
22565;SDS011;11449;51.330;19.378;2024-01-15T23:02:01;269.00;;;192.10;;
22565;SDS011;11449;51.330;19.378;2024-01-15T23:07:09;327.30;;;247.10;;
22565;SDS011;11449;51.330;19.378;2024-01-15T23:12:17;160.00;;;94.20;;
22565;SDS011;11449;51.330;19.378;2024-01-15T23:17:19;529.20;;;471.50;;
22565;SDS011;11449;51.330;19.378;2024-01-15T23:22:27;539.30;;;479.10;;
22565;SDS011;11449;51.330;19.378;2024-01-15T23:27:35;518.90;;;433.40;;
22565;SDS011;11449;51.330;19.378;2024-01-15T23:32:43;498.00;;;399.20;;
22565;SDS011;11449;51.330;19.378;2024-01-15T23:37:50;515.90;;;413.60;;
22565;SDS011;11449;51.330;19.378;2024-01-15T23:42:58;549.20;;;476.50;;
22565;SDS011;11449;51.330;19.378;2024-01-15T23:48:06;542.80;;;444.10;;
22565;SDS011;11449;51.330;19.378;2024-01-15T23:53:14;652.20;;;577.10;;
22565;SDS011;11449;51.330;19.378;2024-01-15T23:58:22;555.10;;;464.20;;
